Flight Track Log - Related Links

Times and Time Zones

All times are in EDT time to prevent confusion due to time zone crossing. See the CSN3260 flight status page for this flight to view local times or setup timezone preferences in your user account.

Time Position Orientation Groundspeed Altitude Reporting Facility
EDT Latitude Longitude Course Direction KTS MPH feet Rate Location/Type
Wed 09:37:06 AM 23.3510 113.2700 209° Southwest 174 200 2,500  Level FlightAware ADS-B
Wed 09:37:20 AM 23.3410 113.2630 213° Southwest 189 217 2,900 1,846 Climbing FlightAware ADS-B
Wed 09:37:45 AM 23.3200 113.2510 208° Southwest 212 244 3,700 2,464 Climbing FlightAware ADS-B
Wed 09:38:16 AM 23.2930 113.2340 210° Southwest 223 257 5,200 2,951 Climbing FlightAware ADS-B
Wed 09:38:46 AM 23.2700 113.2110 223° Southwest 228 262 6,700 2,634 Climbing FlightAware ADS-B
Wed 09:38:57 AM 23.2680 113.1980 260° West 233 268 7,000 571 Climbing FlightAware ADS-B
Wed 09:39:28 AM 23.2790 113.1600 287° West 267 307 7,100 102 Climbing FlightAware ADS-B
Wed 09:39:56 AM 23.2920 113.1240 291° West 272 313 7,100 590 Level FlightAware ADS-B
Wed 09:40:29 AM 23.3070 113.0830 292° West 275 316 7,700 1,759 Climbing FlightAware ADS-B
Wed 09:40:54 AM 23.3220 113.0540 299° West 283 326 8,800 2,800 Climbing FlightAware ADS-B
Wed 09:41:14 AM 23.3480 113.0360 328° Northwest 298 343 9,800 2,235 Climbing FlightAware ADS-B
Wed 09:41:45 AM 23.3880 113.0170 336° Northwest 321 369 10,700 1,548 Climbing FlightAware ADS-B
Wed 09:42:16 AM 23.4350 112.9950 337° Northwest 356 410 11,400 2,032 Climbing FlightAware ADS-B
Wed 09:42:47 AM 23.4800 112.9740 337° Northwest 361 415 12,800 2,278 Climbing FlightAware ADS-B
Wed 09:43:35 AM 23.5570 112.9370 336° Northwest 388 447 14,400 1,912 Climbing FlightAware ADS-B
Wed 09:44:18 AM 23.6310 112.9020 337° Northwest 400 460 15,700 1,013 Climbing FlightAware ADS-B
Wed 09:44:52 AM 23.6870 112.8750 336° Northwest 401 461 15,700  Level FlightAware ADS-B
Wed 09:45:49 AM 23.7860 112.8280 337° Northwest 399 459 15,700  Level FlightAware ADS-B
Wed 09:46:19 AM 23.8350 112.8010 333° Northwest 394 453 15,700  Level FlightAware ADS-B
Wed 09:46:31 AM 23.8510 112.7840 316° Northwest 393 452 15,700  Level FlightAware ADS-B
Wed 09:46:57 AM 23.8720 112.7500 304° West 390 449 15,700  Level FlightAware ADS-B
Wed 09:47:35 AM 23.9000 112.6940 299° West 390 449 15,700 2,108 Level FlightAware ADS-B
Wed 09:48:11 AM 23.9300 112.6050 290° West 404 465 18,300 3,079 Climbing FlightAware ADS-B
Wed 09:48:51 AM 23.9620 112.5290 295° West 419 482 19,600 1,926 Climbing FlightAware ADS-B
Wed 09:49:32 AM 23.9940 112.4510 294° West 429 494 20,900 1,299 Climbing FlightAware ADS-B
Wed 09:50:28 AM 24.0370 112.3450 294° West 426 490 21,700 449 Climbing FlightAware ADS-B
Wed 09:51:19 AM 24.0800 112.2380 294° West 423 487 21,700  Level FlightAware ADS-B
Wed 09:51:59 AM 24.1110 112.1640 295° West 421 484 21,700  Level FlightAware ADS-B
Wed 09:52:37 AM 24.1420 112.0880 294° West 420 483 21,700  Level FlightAware ADS-B
Wed 09:53:29 AM 24.1780 111.9940 293° West 419 482 21,700  Level FlightAware ADS-B
Wed 09:54:16 AM 24.2090 111.9160 294° West 419 482 21,700  Level FlightAware ADS-B
Wed 09:55:24 AM 24.2520 111.8030 293° West 419 482 21,700  Level FlightAware ADS-B
Wed 09:56:01 AM 24.2760 111.7410 293° West 419 482 21,700  Level FlightAware ADS-B
Wed 09:56:35 AM 24.2980 111.6850 293° West 419 482 21,700  Level FlightAware ADS-B
Wed 09:59:00 AM 24.4066 111.4937 302° West  Level Estimated
Wed 10:00:00 AM 24.4515 111.4144 302° West  Level Estimated
Wed 10:01:00 AM 24.4963 111.3351 302° West  Level Estimated
Wed 10:02:00 AM 24.5411 111.2557 302° West  Level Estimated
Wed 10:03:00 AM 24.5858 111.1762 302° West  Level Estimated
Wed 10:04:00 AM 24.6305 111.0967 302° West  Level Estimated
Wed 10:05:00 AM 24.6752 111.0172 302° West  Level Estimated
Wed 10:06:00 AM 24.7198 110.9376 302° West  Level Estimated
Wed 10:07:00 AM 24.7644 110.8579 302° West  Level Estimated
Wed 10:08:00 AM 24.8089 110.7782 302° West  Level Estimated
Wed 10:09:00 AM 24.8534 110.6984 302° West  Level Estimated
Wed 10:10:00 AM 24.8978 110.6186 302° West  Level Estimated
Wed 10:11:00 AM 24.9422 110.5387 302° West  Level Estimated
Wed 10:12:00 AM 24.9866 110.4587 301° West  Level Estimated
Wed 10:13:00 AM 25.0309 110.3787 301° West  Level Estimated
Wed 10:14:00 AM 25.0752 110.2986 301° West  Level Estimated
Wed 10:15:00 AM 25.1194 110.2185 301° West  Level Estimated
Wed 10:16:00 AM 25.1636 110.1383 301° West  Level Estimated
Wed 10:17:00 AM 25.2077 110.0581 301° West  Level Estimated
Wed 10:18:00 AM 25.2181 110.0392 301° West  Level Estimated
Wed 10:19:00 AM 25.2181 110.0392 214° Southwest  Level Estimated
Wed 10:20:00 AM 25.2181 110.0392 214° Southwest  Level Estimated
Wed 10:21:00 AM 25.2181 110.0392 214° Southwest  Level Estimated
Wed 10:22:00 AM 25.2181 110.0392 214° Southwest  Level Estimated
Wed 10:23:00 AM 25.2181 110.0392 214° Southwest  Level Estimated
Wed 10:24:00 AM 25.2181 110.0392 214° Southwest  Level Estimated
Wed 10:25:00 AM 25.2181 110.0392 214° Southwest  Level Estimated
Wed 10:26:00 AM 25.2181 110.0392 214° Southwest  Level Estimated
Wed 10:27:00 AM 25.2181 110.0392 214° Southwest  Level Estimated
Wed 10:28:00 AM 25.2181 110.0392 214° Southwest  Level Estimated
Wed 10:29:00 AM 25.2181 110.0392 214° Southwest  Level Estimated
Wed 10:30:00 AM 25.2181 110.0392 214° Southwest  Level Estimated
Wed 10:31:00 AM 25.2181 110.0392 214° Southwest  Level Estimated

Login

Don't have an account? Register now (free) for customized features, flight alerts, and more!